RDT weather

Richard Toll Airport
Richard Toll, Saint-Louis Region, Senegal

Public forecast

Using degrees Celsius for public forecast. Weather courtesy of forecast.io.

METAR (pilot weather report)

Closest report is Podor Airport, 42.1 nm (77.9 km) ENE. Retrieved 2019/07/19 12:00 UTC (1 hour ago):

GOSP 191200Z 22002KT CAVOK 33/18 Q1012

TAF (pilot weather forecast)

Closest forecast is Saint Louis Airport, 52.2 nm (96.7 km) WSW. Retrieved 2019/07/19 12:51 UTC (33 minutes ago):

TAF GOSS 191130Z 1912/2012 33010KT 9999 SCT012